Terminal Aerodrome Forecast
Issued by NWS Cleveland, OH

Home | Current Version | Previous Version | Text Only | Print | Product List | Glossary Off
Versions: 1 2 3 4 5 6 7 8 9 10 11 12 13 14

000
FTUS41 KCLE 231100
TAFYNG
TAF
KYNG 231130Z 2312/2412 26010KT P6SM SCT025 OVC050
      TEMPO 2312/2316 3SM -SHSN BKN018
     FM231600 29015G25KT P6SM VCSH BKN035 OVC050
     FM240000 30009KT P6SM VCSH BKN045
     FM240500 29007KT P6SM SCT040=

USA.gov is the U.S. government's official web portal to all federal, state and local government web resources and services.